Página principal
METAR-TAF:

METAR-TAF

Aeroportos :

Aeroporto Internacional de Atenas

Atenas, Grécia

latitude: 37-56N, longitude: 023-56E, altura: 94 m

Observação actual do tempo

O boletim foi feito há 18 minutos, às 09:50 UTC
Vento 15 kt de norte
Temperatura 32°C
Humidade 32%
Pressão 1012 hPa
Visibilidade 10 km ou mais
sem nuvens abaixo de 1500 metros e sem cumulonimbus

METAR: LGAV 180950Z 01015KT CAVOK 32/13 Q1012 NOSIG

Hora: 13:08 (10:08 UTC)

Previsão

O boletim foi feito há 5 horas e 8 minutos, às 05:00 UTC
Previsão válida de 18 às 06 UTC a 19 às 06 UTC
Vento 10 kt de nor-noroeste
Visibilidade 10 km ou mais
Poucas nuvensa uma altura de 3000 ft
Tornando-se
de 18 às 06 UTC a 18 às 08 UTC
Vento 15 kt de nor-nordeste com rajadas de 25 kt
Tornando-se
de 18 às 16 UTC a 18 às 18 UTC
Vento 12 kt de norte

TAF: LGAV 180500Z 1806/1906 34010KT 9999 FEW030 BECMG 1806/1808 02015G25KT BECMG 1816/1818 35012KT

Observações e previsões do tempo de mais de 4000 aeroportos (mensagens METAR e TAF).

As estações disponíveis são os pontos amarelos e vermelhos sobre o mapa.

Mova o rato sobre o mapa para ver o nome da estação.

Depois clique no ponto para visualizar as observações e previsões meteorológicas.

Para alterar o mapa : clique nos botões verdes com uma cruz preta para aumentar o zoom; no botão verde com uma pitada de zoom; ou nas setas verdes para mapas adjacentes.


METAR-TAF: